地図

経路データ

SID SEASON NUMBER BASIN SUBBASIN NAME ISO_TIME NATURE LAT LON WMO_WIND WMO_PRES WMO_AGENCY TRACK_TYPE DIST2LAND LANDFALL IFLAG USA_AGENCY USA_ATCF_ID USA_LAT USA_LON USA_RECORD USA_STATUS USA_WIND USA_PRES USA_SSHS USA_R34_NE USA_R34_SE USA_R34_SW USA_R34_NW USA_R50_NE USA_R50_SE USA_R50_SW USA_R50_NW USA_R64_NE USA_R64_SE USA_R64_SW USA_R64_NW USA_POCI USA_ROCI USA_RMW USA_EYE TOKYO_LAT TOKYO_LON TOKYO_GRADE TOKYO_WIND TOKYO_PRES TOKYO_R50_DIR TOKYO_R50_LONG TOKYO_R50_SHORT TOKYO_R30_DIR TOKYO_R30_LONG TOKYO_R30_SHORT TOKYO_LAND CMA_LAT CMA_LON CMA_CAT CMA_WIND CMA_PRES HKO_LAT HKO_LON HKO_CAT HKO_WIND HKO_PRES NEWDELHI_LAT NEWDELHI_LON NEWDELHI_GRADE NEWDELHI_WIND NEWDELHI_PRES NEWDELHI_CI NEWDELHI_DP NEWDELHI_POCI REUNION_LAT REUNION_LON REUNION_TYPE REUNION_WIND REUNION_PRES REUNION_TNUM REUNION_CI REUNION_RMW REUNION_R34_NE REUNION_R34_SE REUNION_R34_SW REUNION_R34_NW REUNION_R50_NE REUNION_R50_SE REUNION_R50_SW REUNION_R50_NW REUNION_R64_NE REUNION_R64_SE REUNION_R64_SW REUNION_R64_NW BOM_LAT BOM_LON BOM_TYPE BOM_WIND BOM_PRES BOM_TNUM BOM_CI BOM_RMW BOM_R34_NE BOM_R34_SE BOM_R34_SW BOM_R34_NW BOM_R50_NE BOM_R50_SE BOM_R50_SW BOM_R50_NW BOM_R64_NE BOM_R64_SE BOM_R64_SW BOM_R64_NW BOM_ROCI BOM_POCI BOM_EYE BOM_POS_METHOD BOM_PRES_METHOD NADI_LAT NADI_LON NADI_CAT NADI_WIND NADI_PRES WELLINGTON_LAT WELLINGTON_LON WELLINGTON_WIND WELLINGTON_PRES DS824_LAT DS824_LON DS824_STAGE DS824_WIND DS824_PRES TD9636_LAT TD9636_LON TD9636_STAGE TD9636_WIND TD9636_PRES TD9635_LAT TD9635_LON TD9635_WIND TD9635_PRES TD9635_ROCI NEUMANN_LAT NEUMANN_LON NEUMANN_CLASS NEUMANN_WIND NEUMANN_PRES MLC_LAT MLC_LON MLC_CLASS MLC_WIND MLC_PRES USA_GUST BOM_GUST BOM_GUST_PER REUNION_GUST REUNION_GUST_PER USA_SEAHGT USA_SEARAD_NE USA_SEARAD_SE USA_SEARAD_SW USA_SEARAD_NW STORM_SPEED STORM_DIR
1876052S18062 1876 7 SI MM NOT_NAMED 1876-02-21 06:00:00 NR -18.2000 62.1000 reunion main 508 489 _____O________ -1 -18.2000 62.1000 99 9.90000 4 270
1876052S18062 1876 7 SI MM NOT_NAMED 1876-02-21 09:00:00 NR -18.1999 61.9143 main 489 470 _____P________ -1 -18.1999 61.9143 99 4 270
1876052S18062 1876 7 SI MM NOT_NAMED 1876-02-21 12:00:00 NR -18.2022 61.7202 main 470 452 _____P________ -1 -18.2022 61.7202 99 4 269
1876052S18062 1876 7 SI MM NOT_NAMED 1876-02-21 15:00:00 NR -18.2093 61.5091 main 452 433 _____P________ -1 -18.2093 61.5091 99 4 267
1876052S18062 1876 7 SI MM NOT_NAMED 1876-02-21 18:00:00 NR -18.2236 61.2726 main 433 406 _____P________ -1 -18.2236 61.2726 99 5 265
1876052S18062 1876 7 SI MM NOT_NAMED 1876-02-21 21:00:00 NR -18.2476 61.0020 main 406 373 _____P________ -1 -18.2476 61.0020 99 6 264
1876052S18062 1876 7 SI MM NOT_NAMED 1876-02-22 00:00:00 NR -18.2835 60.6889 main 373 339 _____P________ -1 -18.2835 60.6889 99 6 262
1876052S18062 1876 7 SI MM NOT_NAMED 1876-02-22 03:00:00 NR -18.3336 60.3244 main 339 299 _____P________ -1 -18.3336 60.3244 99 8 261
1876052S18062 1876 7 SI MM NOT_NAMED 1876-02-22 06:00:00 NR -18.4000 59.9000 reunion main 299 252 _____O________ -1 -18.4000 59.9000 99 9.90000 9 260
1876052S18062 1876 7 SI MM NOT_NAMED 1876-02-22 09:00:00 NR -18.4839 59.4105 main 252 209 _____P________ -1 -18.4839 59.4105 99 10 259
1876052S18062 1876 7 SI MM NOT_NAMED 1876-02-22 12:00:00 NR -18.5826 58.8657 main 209 168 _____P________ -1 -18.5826 58.8657 99 11 259
1876052S18062 1876 7 SI MM NOT_NAMED 1876-02-22 15:00:00 NR -18.6926 58.2791 main 168 145 _____P________ -1 -18.6926 58.2791 99 12 259
1876052S18062 1876 7 SI MM NOT_NAMED 1876-02-22 18:00:00 NR -18.8105 57.6645 main 145 134 _____P________ -1 -18.8105 57.6645 99 12 258
1876052S18062 1876 7 SI MM NOT_NAMED 1876-02-22 21:00:00 NR -18.9331 57.0354 main 144 138 _____P________ -1 -18.9331 57.0354 99 12 258
1876052S18062 1876 7 SI MM NOT_NAMED 1876-02-23 00:00:00 NR -19.0575 56.4057 main 160 160 _____P________ -1 -19.0575 56.4057 99 12 258
1876052S18062 1876 7 SI MM NOT_NAMED 1876-02-23 03:00:00 NR -19.1806 55.7893 main 201 190 _____P________ -1 -19.1806 55.7893 99 12 258
1876052S18062 1876 7 SI MM NOT_NAMED 1876-02-23 06:00:00 NR -19.3000 55.2000 reunion main 190 183 _____O________ -1 -19.3000 55.2000 99 9.90000 11 258
1876052S18062 1876 7 SI MM NOT_NAMED 1876-02-23 09:00:00 NR -19.3989 54.6884 main 189 189 _____P________ -1 -19.3989 54.6884 99 10 258
1876052S18062 1876 7 SI MM NOT_NAMED 1876-02-23 12:00:00 NR -19.4958 54.1978 main 203 203 _____P________ -1 -19.4958 54.1978 99 9 258
1876052S18062 1876 7 SI MM NOT_NAMED 1876-02-23 15:00:00 NR -19.5918 53.7248 main 228 228 _____P________ -1 -19.5918 53.7248 99 9 258
1876052S18062 1876 7 SI MM NOT_NAMED 1876-02-23 18:00:00 NR -19.6883 53.2658 main 252 252 _____P________ -1 -19.6883 53.2658 99 9 257
1876052S18062 1876 7 SI MM NOT_NAMED 1876-02-23 21:00:00 NR -19.7863 52.8173 main 289 289 _____P________ -1 -19.7863 52.8173 99 9 257
1876052S18062 1876 7 SI MM NOT_NAMED 1876-02-24 00:00:00 NR -19.8869 52.3759 main 320 320 _____P________ -1 -19.8869 52.3759 99 9 256
1876052S18062 1876 7 SI MM NOT_NAMED 1876-02-24 03:00:00 NR -19.9911 51.9380 main 314 279 _____P________ -1 -19.9911 51.9380 99 9 255
1876052S18062 1876 7 SI MM NOT_NAMED 1876-02-24 06:00:00 NR -20.1000 51.5000 reunion main 279 230 _____O________ -1 -20.1000 51.5000 99 9.90000 9 255
1876052S18062 1876 7 SI MM NOT_NAMED 1876-02-24 09:00:00 NR -20.2276 51.0022 main 230 182 _____P________ -1 -20.2276 51.0022 99 10 254
1876052S18062 1876 7 SI MM NOT_NAMED 1876-02-24 12:00:00 NR -20.3611 50.5011 main 182 137 _____P________ -1 -20.3611 50.5011 99 10 254
1876052S18062 1876 7 SI MM NOT_NAMED 1876-02-24 15:00:00 NR -20.4970 50.0050 main 137 94 _____P________ -1 -20.4970 50.0050 99 10 254
1876052S18062 1876 7 SI MM NOT_NAMED 1876-02-24 18:00:00 NR -20.6320 49.5224 main 94 61 _____P________ -1 -20.6320 49.5224 99 9 253
1876052S18062 1876 7 SI MM NOT_NAMED 1876-02-24 21:00:00 NR -20.7629 49.0620 main 66 31 _____P________ -1 -20.7629 49.0620 99 9 253
1876052S18062 1876 7 SI MM NOT_NAMED 1876-02-25 00:00:00 NR -20.8866 48.6323 main 20 0 _____P________ -1 -20.8866 48.6323 99 8 253
1876052S18062 1876 7 SI MM NOT_NAMED 1876-02-25 03:00:00 NR -20.9999 48.2420 main 0 0 _____P________ -1 -20.9999 48.2420 99 7 253
1876052S18062 1876 7 SI MM NOT_NAMED 1876-02-25 06:00:00 NR -21.1000 47.9000 reunion main 0 0 _____O________ -1 -21.1000 47.9000 99 9.90000 6 253
1876052S18062 1876 7 SI MM NOT_NAMED 1876-02-25 09:00:00 NR -21.1847 47.6123 main 0 0 _____P________ -1 -21.1847 47.6123 99 5 252
1876052S18062 1876 7 SI MM NOT_NAMED 1876-02-25 12:00:00 NR -21.2553 47.3746 main 0 0 _____P________ -1 -21.2553 47.3746 99 4 252
1876052S18062 1876 7 SI MM NOT_NAMED 1876-02-25 15:00:00 NR -21.3140 47.1799 main 0 0 _____P________ -1 -21.3140 47.1799 99 3 252
1876052S18062 1876 7 SI MM NOT_NAMED 1876-02-25 18:00:00 NR -21.3629 47.0209 main 0 0 _____P________ -1 -21.3629 47.0209 99 3 251
1876052S18062 1876 7 SI MM NOT_NAMED 1876-02-25 21:00:00 NR -21.4040 46.8906 main 0 0 _____P________ -1 -21.4040 46.8906 99 2 251
1876052S18062 1876 7 SI MM NOT_NAMED 1876-02-26 00:00:00 NR -21.4392 46.7818 main 0 0 _____P________ -1 -21.4392 46.7818 99 2 251
1876052S18062 1876 7 SI MM NOT_NAMED 1876-02-26 03:00:00 NR -21.4706 46.6873 main 0 0 _____P________ -1 -21.4706 46.6873 99 2 250
1876052S18062 1876 7 SI MM NOT_NAMED 1876-02-26 06:00:00 NR -21.5000 46.6000 reunion main 0 _____O________ -1 -21.5000 46.6000 99 9.90000 2 251

IBTrACS Databaseについて

本データベースは、米国NOAAが公開する1842年以降の世界の熱帯低気圧のベストトラックデータアーカイブInternational Best Track Archive for Climate Stewardship (IBTrACS)を、ウェブで閲覧しやすい形式に変換したものです。

最終更新日:2021-11-26